createdAt,value
2022-10-13T00:01:06.772Z,14.25
2022-10-13T00:03:33.524Z,18.05
2022-10-13T00:06:00.162Z,18.62
2022-10-13T00:08:26.879Z,14.44
2022-10-13T00:10:53.538Z,15.01
2022-10-13T00:13:20.852Z,15.20
2022-10-13T00:15:48.554Z,14.63
2022-10-13T00:18:16.940Z,15.96
2022-10-13T00:20:48.197Z,16.72
2022-10-13T00:23:17.672Z,17.29
2022-10-13T00:25:49.847Z,14.44
2022-10-13T00:28:19.822Z,20.33
2022-10-13T00:30:47.435Z,16.15
2022-10-13T00:33:15.047Z,17.67
2022-10-13T00:35:45.725Z,19.76
2022-10-13T00:38:13.187Z,16.15
2022-10-13T00:40:53.823Z,14.25
2022-10-13T00:43:23.997Z,16.72
2022-10-13T00:45:53.256Z,14.06
2022-10-13T00:48:25.637Z,16.53
2022-10-13T00:50:53.608Z,14.44
2022-10-13T00:53:27.005Z,13.49
2022-10-13T00:55:55.591Z,15.01
2022-10-13T00:58:31.279Z,21.47
2022-10-13T01:00:59.155Z,19.95
2022-10-13T01:03:27.307Z,18.24
2022-10-13T01:06:00.288Z,14.25
2022-10-13T01:08:29.611Z,15.01
2022-10-13T01:11:31.266Z,12.16
2022-10-13T01:14:18.659Z,15.58
2022-10-13T01:16:57.979Z,18.05
2022-10-13T01:19:49.339Z,14.63
2022-10-13T01:23:06.120Z,17.48
2022-10-13T01:26:09.689Z,16.91
2022-10-13T01:29:11.933Z,16.72
2022-10-13T01:32:01.936Z,14.06
2022-10-13T01:35:07.158Z,16.15
2022-10-13T01:38:08.485Z,15.20
2022-10-13T01:41:01.820Z,14.63
2022-10-13T01:43:37.502Z,16.72
2022-10-13T01:46:15.739Z,14.82
2022-10-13T01:48:45.859Z,12.92
2022-10-13T01:51:20.744Z,16.53
2022-10-13T01:53:49.123Z,16.91
2022-10-13T01:56:16.566Z,15.96
2022-10-13T01:58:44.743Z,18.62
2022-10-13T02:02:16.561Z,15.39
2022-10-13T02:05:15.214Z,15.77
2022-10-13T02:07:49.181Z,15.39
2022-10-13T02:10:33.453Z,15.77
2022-10-13T02:13:06.604Z,17.10
2022-10-13T02:16:01.318Z,16.53
2022-10-13T02:18:34.501Z,16.72
2022-10-13T02:21:03.520Z,20.90
2022-10-13T02:23:31.518Z,19.95
2022-10-13T02:26:00.344Z,16.34
2022-10-13T02:28:29.263Z,18.24
2022-10-13T02:30:56.781Z,15.39
2022-10-13T02:33:23.548Z,18.62
2022-10-13T02:35:50.202Z,14.44
2022-10-13T02:38:16.804Z,23.18
2022-10-13T02:40:43.802Z,19.00
2022-10-13T02:43:10.456Z,15.39
2022-10-13T02:45:37.125Z,21.85
2022-10-13T02:48:03.878Z,18.43
2022-10-13T02:50:30.532Z,22.99
2022-10-13T02:52:57.312Z,21.28
2022-10-13T02:55:23.977Z,14.82
2022-10-13T02:57:50.610Z,15.96
2022-10-13T03:00:17.711Z,19.95
2022-10-13T03:02:44.727Z,13.87
2022-10-13T03:05:11.560Z,15.20
2022-10-13T03:07:38.401Z,16.34
2022-10-13T03:10:05.744Z,16.91
2022-10-13T03:12:32.546Z,16.53
2022-10-13T03:14:59.169Z,20.90
2022-10-13T03:17:25.873Z,20.33
2022-10-13T03:19:52.674Z,16.72
2022-10-13T03:22:19.589Z,16.91
2022-10-13T03:24:46.593Z,19.95
2022-10-13T03:27:13.740Z,20.14
2022-10-13T03:29:40.478Z,22.80
2022-10-13T03:32:07.354Z,14.82
2022-10-13T03:34:33.949Z,17.48
2022-10-13T03:37:00.582Z,16.15
2022-10-13T03:39:27.200Z,16.15
2022-10-13T03:41:53.839Z,16.15
2022-10-13T03:44:20.476Z,16.53
2022-10-13T03:46:47.256Z,14.63
2022-10-13T03:49:14.354Z,15.20
2022-10-13T03:51:41.058Z,18.81
2022-10-13T03:54:07.770Z,17.29
2022-10-13T03:56:34.417Z,18.43
2022-10-13T03:59:01.773Z,17.29
2022-10-13T04:01:30.531Z,19.00
2022-10-13T04:03:59.621Z,16.91
2022-10-13T04:06:26.735Z,16.53
2022-10-13T04:08:54.760Z,16.53
2022-10-13T04:11:22.305Z,18.05
2022-10-13T04:13:49.542Z,19.95
2022-10-13T04:16:25.064Z,23.94
2022-10-13T04:19:04.616Z,18.05
2022-10-13T04:21:34.730Z,17.86
2022-10-13T04:24:03.891Z,16.34
2022-10-13T04:26:34.275Z,22.04
2022-10-13T04:29:04.771Z,19.38
2022-10-13T04:31:33.023Z,16.72
2022-10-13T04:33:59.701Z,22.99
2022-10-13T04:36:27.009Z,19.95
2022-10-13T04:38:55.051Z,18.24
2022-10-13T04:41:23.558Z,17.86
2022-10-13T04:43:52.342Z,15.96
2022-10-13T04:46:26.593Z,15.39
2022-10-13T04:48:54.730Z,18.81
2022-10-13T04:51:24.936Z,16.53
2022-10-13T04:54:01.042Z,24.70
2022-10-13T04:56:28.497Z,19.00
2022-10-13T04:58:55.238Z,20.14
2022-10-13T05:01:25.087Z,19.57
2022-10-13T05:03:57.541Z,19.95
2022-10-13T05:06:48.569Z,19.95
2022-10-13T05:09:24.000Z,17.67
2022-10-13T05:11:50.770Z,18.62
2022-10-13T05:14:17.925Z,18.62
2022-10-13T05:16:44.524Z,23.94
2022-10-13T05:19:11.264Z,21.47
2022-10-13T05:21:39.314Z,21.85
2022-10-13T05:24:06.901Z,23.37
2022-10-13T05:26:36.091Z,20.52
2022-10-13T05:29:03.601Z,22.61
2022-10-13T05:31:32.814Z,21.85
2022-10-13T05:34:00.900Z,20.33
2022-10-13T05:36:34.605Z,23.75
2022-10-13T05:39:06.338Z,21.09
2022-10-13T05:41:33.026Z,24.13
2022-10-13T05:44:04.183Z,24.51
2022-10-13T05:46:30.979Z,24.51
2022-10-13T05:48:57.697Z,20.71
2022-10-13T05:51:30.600Z,20.71
2022-10-13T05:54:13.102Z,31.35
2022-10-13T05:56:47.661Z,23.18
2022-10-13T05:59:23.346Z,24.89
2022-10-13T06:01:53.440Z,19.00
2022-10-13T06:04:31.739Z,23.75
2022-10-13T06:06:58.497Z,21.85
2022-10-13T06:09:26.429Z,23.18
2022-10-13T06:11:53.042Z,27.74
2022-10-13T06:14:19.728Z,24.51
2022-10-13T06:16:46.348Z,25.46
2022-10-13T06:19:12.982Z,20.33
2022-10-13T06:21:39.674Z,28.31
2022-10-13T06:24:06.638Z,28.88
2022-10-13T06:26:33.464Z,26.60
2022-10-13T06:29:00.275Z,25.27
2022-10-13T06:31:27.397Z,24.89
2022-10-13T06:33:54.370Z,21.09
2022-10-13T06:36:21.139Z,25.65
2022-10-13T06:38:47.781Z,30.78
2022-10-13T06:41:15.544Z,26.41
2022-10-13T06:43:42.513Z,27.74
2022-10-13T06:46:10.230Z,33.82
2022-10-13T06:48:36.929Z,35.53
2022-10-13T06:51:06.485Z,30.59
2022-10-13T06:53:34.003Z,25.84
2022-10-13T06:56:04.285Z,25.84
2022-10-13T06:58:31.106Z,24.13
2022-10-13T07:00:57.924Z,25.84
2022-10-13T07:03:25.356Z,23.56
2022-10-13T07:05:52.175Z,21.47
2022-10-13T07:08:19.625Z,28.31
2022-10-13T07:10:46.446Z,25.46
2022-10-13T07:13:13.140Z,31.35
2022-10-13T07:15:41.074Z,26.98
2022-10-13T07:18:08.460Z,32.30
2022-10-13T07:20:36.040Z,19.95
2022-10-13T07:23:03.576Z,35.15
2022-10-13T07:25:30.602Z,27.17
2022-10-13T07:28:00.049Z,27.93
2022-10-13T07:30:27.432Z,31.35
2022-10-13T07:32:54.061Z,23.94
2022-10-13T07:35:22.587Z,26.98
2022-10-13T07:37:53.957Z,28.69
2022-10-13T07:40:20.886Z,26.79
2022-10-13T07:42:47.589Z,26.60
2022-10-13T07:45:14.409Z,29.64
2022-10-13T07:47:41.060Z,28.12
2022-10-13T07:50:09.316Z,31.73
2022-10-13T07:52:37.095Z,28.31
2022-10-13T07:55:04.697Z,26.60
2022-10-13T07:57:31.409Z,30.02
2022-10-13T07:59:58.229Z,31.54
2022-10-13T08:02:26.161Z,28.31
2022-10-13T08:04:52.904Z,27.93
2022-10-13T08:07:19.764Z,27.93
2022-10-13T08:09:46.543Z,30.40
2022-10-13T08:12:18.338Z,27.17
2022-10-13T08:14:45.305Z,28.12
2022-10-13T08:17:12.063Z,28.50
2022-10-13T08:19:38.687Z,26.03
2022-10-13T08:22:09.211Z,26.79
2022-10-13T08:24:36.748Z,34.01
2022-10-13T08:27:03.745Z,27.55
2022-10-13T08:29:30.463Z,22.80
2022-10-13T08:31:57.206Z,31.92
2022-10-13T08:34:25.345Z,30.97
2022-10-13T08:36:56.124Z,32.11
2022-10-13T08:39:24.420Z,30.59
2022-10-13T08:41:52.359Z,27.17
2022-10-13T08:45:10.811Z,28.50
2022-10-13T08:47:27.277Z,26.60
2022-10-13T08:50:00.291Z,35.72
2022-10-13T08:52:46.952Z,27.17
2022-10-13T08:55:42.827Z,30.59
2022-10-13T08:58:16.016Z,28.88
2022-10-13T09:00:43.126Z,34.39
2022-10-13T09:03:29.857Z,34.77
2022-10-13T09:06:27.879Z,25.46
2022-10-13T09:08:58.562Z,30.21
2022-10-13T09:11:34.053Z,29.83
2022-10-13T09:14:08.813Z,27.93
2022-10-13T09:16:40.650Z,31.54
2022-10-13T09:19:34.062Z,28.31
2022-10-13T09:22:24.529Z,30.78
2022-10-13T09:25:06.604Z,31.92
2022-10-13T09:27:48.440Z,32.11
2022-10-13T09:30:26.821Z,26.79
2022-10-13T09:33:22.158Z,32.11
2022-10-13T09:36:06.357Z,29.26
2022-10-13T09:38:34.957Z,31.35
2022-10-13T09:41:10.433Z,35.15
2022-10-13T09:43:45.792Z,26.41
2022-10-13T09:46:24.253Z,30.97
2022-10-13T09:48:55.178Z,35.34
2022-10-13T09:51:42.599Z,28.12
2022-10-13T09:54:38.591Z,25.27
2022-10-13T09:57:34.378Z,28.12
2022-10-13T10:00:16.437Z,30.40
2022-10-13T10:02:55.628Z,30.21
2022-10-13T10:05:38.454Z,33.82
2022-10-13T10:09:05.260Z,34.96
2022-10-13T10:11:33.515Z,35.91
2022-10-13T10:14:26.364Z,36.86
2022-10-13T10:17:42.999Z,30.59
2022-10-13T10:20:49.365Z,29.45
2022-10-13T10:23:48.959Z,32.11
2022-10-13T10:26:30.154Z,31.73
2022-10-13T10:29:19.416Z,28.50
2022-10-13T10:32:30.597Z,35.91
2022-10-13T10:35:10.037Z,26.22
2022-10-13T10:37:48.630Z,31.54
2022-10-13T10:40:47.599Z,32.30
2022-10-13T10:44:00.791Z,29.64
2022-10-13T10:46:36.904Z,29.07
2022-10-13T10:49:31.447Z,33.44
2022-10-13T10:52:03.509Z,33.82
2022-10-13T10:54:54.746Z,27.93
2022-10-13T10:57:54.790Z,26.60
2022-10-13T11:00:23.890Z,29.83
2022-10-13T11:03:09.506Z,27.93
2022-10-13T11:05:58.367Z,27.36
2022-10-13T11:08:30.702Z,21.66
2022-10-13T11:11:25.082Z,31.35
2022-10-13T11:14:05.730Z,30.59
2022-10-13T11:16:38.387Z,33.06
2022-10-13T11:19:26.209Z,25.84
2022-10-13T11:21:52.729Z,25.65
2022-10-13T11:24:51.006Z,28.69
2022-10-13T11:27:47.069Z,21.85
2022-10-13T11:30:42.362Z,22.99
2022-10-13T11:33:40.338Z,27.93
2022-10-13T11:36:57.098Z,33.63
2022-10-13T11:42:23.649Z,22.80
2022-10-13T11:45:25.867Z,24.70
2022-10-13T11:48:30.513Z,20.71
2022-10-13T11:51:23.785Z,22.23
2022-10-13T11:54:34.510Z,26.41
2022-10-13T11:57:01.514Z,26.79
2022-10-13T11:59:32.553Z,21.47
2022-10-13T12:02:12.344Z,25.46
2022-10-13T12:04:46.469Z,22.23
2022-10-13T12:07:17.494Z,19.95
2022-10-13T12:09:57.563Z,28.12
2022-10-13T12:12:25.849Z,20.71
2022-10-13T12:14:58.650Z,23.94
2022-10-13T12:17:32.682Z,21.85
2022-10-13T12:20:26.007Z,24.32
2022-10-13T12:22:55.407Z,16.91
2022-10-13T12:25:28.375Z,19.00
2022-10-13T12:27:59.585Z,23.75
2022-10-13T12:30:36.431Z,26.22
2022-10-13T12:33:22.561Z,25.27
2022-10-13T12:35:49.355Z,30.21
2022-10-13T12:38:20.903Z,25.46
2022-10-13T12:40:51.006Z,26.60
2022-10-13T12:43:25.326Z,24.13
2022-10-13T12:45:52.526Z,26.79
2022-10-13T12:48:37.049Z,26.03
2022-10-13T12:51:27.559Z,23.94
2022-10-13T12:53:54.806Z,28.50
2022-10-13T12:56:33.243Z,26.41
2022-10-13T12:59:00.927Z,28.31
2022-10-13T13:01:32.412Z,27.36
2022-10-13T13:04:16.472Z,28.12
2022-10-13T13:06:59.584Z,26.03
2022-10-13T13:09:35.654Z,23.75
2022-10-13T13:12:20.000Z,32.11
2022-10-13T13:14:52.482Z,19.00
2022-10-13T13:17:38.474Z,24.51
2022-10-13T13:20:31.235Z,24.51
2022-10-13T13:22:58.888Z,22.61
2022-10-13T13:25:26.767Z,30.21
2022-10-13T13:27:53.990Z,28.88
2022-10-13T13:30:23.997Z,35.15
2022-10-13T13:32:51.668Z,25.84
2022-10-13T13:35:18.848Z,26.22
2022-10-13T13:37:51.516Z,23.94
2022-10-13T13:40:27.682Z,23.75
2022-10-13T13:42:55.352Z,26.98
2022-10-13T13:45:27.212Z,21.66
2022-10-13T13:47:59.513Z,24.51
2022-10-13T13:50:34.527Z,26.60
2022-10-13T13:53:01.729Z,26.60
2022-10-13T13:55:30.103Z,28.31
2022-10-13T13:57:58.406Z,23.75
2022-10-13T14:00:25.930Z,23.56
2022-10-13T14:02:52.687Z,24.70
2022-10-13T14:05:19.450Z,25.84
2022-10-13T14:07:46.201Z,26.03
2022-10-13T14:10:12.951Z,24.32
2022-10-13T14:12:40.089Z,20.33
2022-10-13T14:15:07.978Z,22.04
2022-10-13T14:17:34.696Z,24.70
2022-10-13T14:20:01.526Z,23.56
2022-10-13T14:22:28.308Z,22.80
2022-10-13T14:24:54.977Z,21.66
2022-10-13T14:27:21.923Z,24.89
2022-10-13T14:29:48.905Z,24.32
2022-10-13T14:32:15.933Z,22.04
2022-10-13T14:34:42.591Z,20.90
2022-10-13T14:37:09.214Z,21.66
2022-10-13T14:39:35.901Z,26.22
2022-10-13T14:42:02.742Z,22.42
2022-10-13T14:44:29.400Z,22.23
2022-10-13T14:46:56.090Z,21.66
2022-10-13T14:49:22.961Z,21.28
2022-10-13T14:51:49.630Z,20.90
2022-10-13T14:54:16.738Z,20.90
2022-10-13T14:56:44.728Z,23.37
2022-10-13T14:59:12.565Z,23.56
2022-10-13T15:01:41.525Z,16.34
2022-10-13T15:04:08.815Z,21.47
2022-10-13T15:06:40.243Z,24.89
2022-10-13T15:11:41.554Z,22.04
2022-10-13T15:14:09.748Z,20.90
2022-10-13T15:16:37.876Z,21.47
2022-10-13T15:19:05.402Z,22.04
2022-10-13T15:21:32.111Z,20.71
2022-10-13T15:23:58.980Z,20.14
2022-10-13T15:26:25.748Z,23.37
2022-10-13T15:28:53.978Z,21.28
2022-10-13T15:31:23.555Z,22.23
2022-10-13T15:33:53.644Z,22.23
2022-10-13T15:36:23.074Z,24.89
2022-10-13T15:38:51.519Z,22.80
2022-10-13T15:41:18.902Z,18.05
2022-10-13T15:43:46.030Z,19.00
2022-10-13T15:46:21.710Z,19.95
2022-10-13T15:48:53.496Z,23.18
2022-10-13T15:51:24.331Z,25.27
2022-10-13T15:53:51.045Z,26.03
2022-10-13T15:56:18.197Z,28.69
2022-10-13T15:58:46.247Z,29.26
2022-10-13T16:01:14.560Z,22.99
2022-10-13T16:03:42.463Z,26.79
2022-10-13T16:06:13.702Z,28.69
2022-10-13T16:08:44.183Z,25.84
2022-10-13T16:11:15.585Z,24.70
2022-10-13T16:13:51.106Z,22.61
2022-10-13T16:16:19.526Z,25.27
2022-10-13T16:18:46.837Z,22.99
2022-10-13T16:21:19.243Z,25.84
2022-10-13T16:23:47.958Z,26.03
2022-10-13T16:26:17.286Z,27.74
2022-10-13T16:28:45.767Z,25.65
2022-10-13T16:31:16.610Z,26.41
2022-10-13T16:33:45.440Z,25.65
2022-10-13T16:36:16.782Z,24.70
2022-10-13T16:38:46.091Z,23.75
2022-10-13T16:41:18.470Z,23.75
2022-10-13T16:43:47.454Z,27.36
2022-10-13T16:46:18.674Z,22.99
2022-10-13T16:48:47.078Z,23.18
2022-10-13T16:51:17.932Z,21.09
2022-10-13T16:53:53.040Z,20.14
2022-10-13T16:56:24.421Z,20.90
2022-10-13T16:59:01.271Z,21.47
2022-10-13T17:01:29.942Z,21.28
2022-10-13T17:03:57.388Z,20.90
2022-10-13T17:06:27.242Z,17.29
2022-10-13T17:08:58.464Z,24.13
2022-10-13T17:11:31.573Z,19.19
2022-10-13T17:14:00.460Z,24.70
2022-10-13T17:16:28.313Z,23.56
2022-10-13T17:18:55.158Z,24.70
2022-10-13T17:21:22.465Z,21.09
2022-10-13T17:23:50.181Z,23.94
2022-10-13T17:26:19.122Z,22.42
2022-10-13T17:28:45.883Z,19.95
2022-10-13T17:31:23.774Z,22.80
2022-10-13T17:33:51.381Z,21.85
2022-10-13T17:36:25.681Z,21.09
2022-10-13T17:38:55.907Z,21.85
2022-10-13T17:41:24.462Z,21.09
2022-10-13T17:43:52.393Z,25.46
2022-10-13T17:46:41.586Z,28.50
2022-10-13T17:49:12.010Z,21.66
2022-10-13T17:51:41.330Z,27.36
2022-10-13T17:54:14.441Z,27.17
2022-10-13T17:56:43.946Z,26.22
2022-10-13T17:59:10.905Z,27.55
2022-10-13T18:01:38.420Z,28.88
2022-10-13T18:04:11.157Z,31.35
2022-10-13T18:06:40.910Z,25.84
2022-10-13T18:09:20.503Z,30.21
2022-10-13T18:11:51.178Z,30.59
2022-10-13T18:14:21.040Z,29.26
2022-10-13T18:16:48.769Z,30.78
2022-10-13T18:19:15.537Z,35.72
2022-10-13T18:21:42.478Z,36.29
2022-10-13T18:24:11.392Z,35.72
2022-10-13T18:26:38.569Z,39.90
2022-10-13T18:29:09.223Z,37.62
2022-10-13T18:31:38.447Z,30.21
2022-10-13T18:34:13.653Z,37.62
2022-10-13T18:36:54.940Z,39.52
2022-10-13T18:39:25.828Z,35.72
2022-10-13T18:41:55.044Z,32.68
2022-10-13T18:44:24.939Z,38.76
2022-10-13T18:46:56.290Z,44.65
2022-10-13T18:49:30.916Z,41.23
2022-10-13T18:51:59.507Z,37.24
2022-10-13T18:54:27.863Z,41.80
2022-10-13T18:56:54.531Z,39.33
2022-10-13T18:59:21.253Z,45.79
2022-10-13T19:01:47.925Z,45.79
2022-10-13T19:04:16.849Z,50.73
2022-10-13T19:06:45.091Z,47.12
2022-10-13T19:09:15.053Z,42.37
2022-10-13T19:11:41.926Z,50.54
2022-10-13T19:14:12.491Z,53.58
2022-10-13T19:16:42.621Z,49.21
2022-10-13T19:19:09.462Z,49.59
2022-10-13T19:21:38.203Z,49.40
2022-10-13T19:24:05.477Z,49.59
2022-10-13T19:26:34.683Z,51.87
2022-10-13T19:29:09.072Z,50.92
2022-10-13T19:31:37.977Z,56.62
2022-10-13T19:34:04.685Z,52.82
2022-10-13T19:36:37.451Z,53.20
2022-10-13T19:39:11.732Z,50.92
2022-10-13T19:41:40.362Z,57.95
2022-10-13T19:44:07.141Z,55.67
2022-10-13T19:46:36.274Z,55.86
2022-10-13T19:49:04.877Z,54.34
2022-10-13T19:51:33.024Z,60.80
2022-10-13T19:54:00.915Z,65.17
2022-10-13T19:56:34.088Z,68.40
2022-10-13T19:59:04.410Z,51.49
2022-10-13T20:01:33.005Z,59.66
2022-10-13T20:03:59.716Z,60.99
2022-10-13T20:06:26.334Z,64.41
2022-10-13T20:08:52.970Z,66.69
2022-10-13T20:11:23.790Z,67.83
2022-10-13T20:13:52.582Z,63.65
2022-10-13T20:16:24.165Z,60.80
2022-10-13T20:18:57.631Z,62.51
2022-10-13T20:21:27.306Z,68.40
2022-10-13T20:23:55.169Z,62.32
2022-10-13T20:26:23.320Z,64.41
2022-10-13T20:28:52.475Z,60.80
2022-10-13T20:31:21.969Z,58.33
2022-10-13T20:33:53.997Z,62.70
2022-10-13T20:36:20.686Z,65.36
2022-10-13T20:38:49.144Z,60.61
2022-10-13T20:41:19.887Z,59.85
2022-10-13T20:43:48.579Z,61.56
2022-10-13T20:46:17.868Z,62.13
2022-10-13T20:49:09.290Z,58.71
2022-10-13T20:51:31.463Z,64.79
2022-10-13T20:53:58.353Z,60.61
2022-10-13T20:56:29.269Z,55.48
2022-10-13T20:58:55.966Z,60.23
2022-10-13T21:01:23.956Z,59.85
2022-10-13T21:03:54.781Z,54.91
2022-10-13T21:06:24.333Z,59.47
2022-10-13T21:08:52.340Z,52.82
2022-10-13T21:11:22.179Z,56.24
2022-10-13T21:13:50.968Z,52.06
2022-10-13T21:16:21.828Z,54.15
2022-10-13T21:18:51.224Z,55.29
2022-10-13T21:21:24.853Z,52.63
2022-10-13T21:23:54.202Z,51.11
2022-10-13T21:26:23.530Z,53.96
2022-10-13T21:28:51.273Z,53.20
2022-10-13T21:31:21.465Z,50.73
2022-10-13T21:33:49.560Z,51.11
2022-10-13T21:36:29.695Z,55.48
2022-10-13T21:39:01.295Z,49.78
2022-10-13T21:41:29.399Z,51.87
2022-10-13T21:43:57.417Z,56.24
2022-10-13T21:46:28.225Z,48.26
2022-10-13T21:48:58.749Z,51.11
2022-10-13T21:51:29.411Z,45.98
2022-10-13T21:54:06.599Z,51.49
2022-10-13T21:56:34.380Z,49.59
2022-10-13T21:59:01.658Z,50.16
2022-10-13T22:01:28.802Z,47.69
2022-10-13T22:03:58.546Z,46.55
2022-10-13T22:06:27.417Z,49.59
2022-10-13T22:08:56.938Z,44.46
2022-10-13T22:11:28.498Z,49.21
2022-10-13T22:13:59.347Z,48.07
2022-10-13T22:16:49.600Z,45.60
2022-10-13T22:19:18.486Z,44.65
2022-10-13T22:21:48.510Z,51.68
2022-10-13T22:24:21.243Z,51.11
2022-10-13T22:26:49.996Z,49.40
2022-10-13T22:29:21.024Z,52.63
2022-10-13T22:31:48.480Z,49.78
2022-10-13T22:34:16.530Z,51.49
2022-10-13T22:36:45.087Z,51.11
2022-10-13T22:39:12.641Z,56.43
2022-10-13T22:41:39.690Z,55.67
2022-10-13T22:44:06.380Z,60.42
2022-10-13T22:46:38.778Z,57.76
2022-10-13T22:49:07.710Z,61.37
2022-10-13T22:51:36.600Z,56.62
2022-10-13T22:54:04.746Z,56.62
2022-10-13T22:56:34.345Z,55.10
2022-10-13T22:59:07.567Z,54.34
2022-10-13T23:01:35.405Z,50.73
2022-10-13T23:04:02.152Z,57.19
2022-10-13T23:06:32.614Z,52.82
2022-10-13T23:09:06.179Z,53.20
2022-10-13T23:11:34.347Z,60.04
2022-10-13T23:14:02.766Z,50.35
2022-10-13T23:16:30.330Z,52.63
2022-10-13T23:18:57.206Z,53.96
2022-10-13T23:21:28.968Z,46.17
2022-10-13T23:24:02.585Z,48.07
2022-10-13T23:26:29.486Z,51.30
2022-10-13T23:28:57.839Z,48.07
2022-10-13T23:31:27.404Z,47.31
2022-10-13T23:33:54.499Z,43.13
2022-10-13T23:36:25.542Z,42.94
2022-10-13T23:39:05.434Z,43.70
2022-10-13T23:41:32.718Z,42.37
2022-10-13T23:43:59.500Z,43.32
2022-10-13T23:46:26.221Z,44.84
2022-10-13T23:48:53.024Z,42.75
2022-10-13T23:51:24.478Z,45.41
2022-10-13T23:53:52.557Z,36.29
2022-10-13T23:56:19.430Z,36.86
2022-10-13T23:58:46.781Z,35.34
